sensor_id;sensor_type;location;lat;lon;timestamp;pressure;altitude;pressure_sealevel;temperature;humidity
34983;BME280;21187;50.976;13.720;2023-02-04T00:01:41;98474.09;;;7.00;63.16
34983;BME280;21187;50.976;13.720;2023-02-04T00:06:43;98523.38;;;6.92;62.75
34983;BME280;21187;50.976;13.720;2023-02-04T00:11:45;98563.88;;;6.69;62.23
34983;BME280;21187;50.976;13.720;2023-02-04T00:16:47;98559.84;;;6.40;62.09
34983;BME280;21187;50.976;13.720;2023-02-04T00:21:49;98589.09;;;6.33;61.83
34983;BME280;21187;50.976;13.720;2023-02-04T00:26:50;98601.53;;;6.20;61.50
34983;BME280;21187;50.976;13.720;2023-02-04T00:31:52;98602.59;;;6.10;61.29
34983;BME280;21187;50.976;13.720;2023-02-04T00:36:54;98645.88;;;6.00;61.11
34983;BME280;21187;50.976;13.720;2023-02-04T00:41:56;98653.47;;;5.98;60.90
34983;BME280;21187;50.976;13.720;2023-02-04T00:46:58;98667.31;;;5.91;60.71
34983;BME280;21187;50.976;13.720;2023-02-04T00:52:00;98698.84;;;5.77;60.18
34983;BME280;21187;50.976;13.720;2023-02-04T00:57:02;98719.16;;;5.69;59.91
34983;BME280;21187;50.976;13.720;2023-02-04T01:02:04;98749.94;;;5.63;59.75
34983;BME280;21187;50.976;13.720;2023-02-04T01:07:06;98762.06;;;5.60;59.71
34983;BME280;21187;50.976;13.720;2023-02-04T01:12:08;98775.81;;;5.59;59.28
34983;BME280;21187;50.976;13.720;2023-02-04T01:17:10;98802.78;;;5.54;59.34
34983;BME280;21187;50.976;13.720;2023-02-04T01:22:12;98802.91;;;5.48;59.18
34983;BME280;21187;50.976;13.720;2023-02-04T01:27:14;98824.00;;;5.41;59.18
34983;BME280;21187;50.976;13.720;2023-02-04T01:32:16;98826.59;;;5.46;58.84
34983;BME280;21187;50.976;13.720;2023-02-04T01:37:18;98843.19;;;5.48;58.66
34983;BME280;21187;50.976;13.720;2023-02-04T01:42:20;98854.03;;;5.43;58.35
34983;BME280;21187;50.976;13.720;2023-02-04T01:47:22;98859.00;;;5.36;58.72
34983;BME280;21187;50.976;13.720;2023-02-04T01:52:27;98874.13;;;5.32;58.60
34983;BME280;21187;50.976;13.720;2023-02-04T01:57:32;98887.22;;;5.20;58.56
34983;BME280;21187;50.976;13.720;2023-02-04T02:07:44;98941.69;;;5.06;58.41
34983;BME280;21187;50.976;13.720;2023-02-04T02:12:47;98944.47;;;5.01;58.79
34983;BME280;21187;50.976;13.720;2023-02-04T02:17:50;98961.25;;;4.93;58.86
34983;BME280;21187;50.976;13.720;2023-02-04T02:27:57;99000.91;;;4.96;58.88
34983;BME280;21187;50.976;13.720;2023-02-04T02:33:00;99009.56;;;4.93;58.82
34983;BME280;21187;50.976;13.720;2023-02-04T02:38:02;99023.22;;;4.96;58.17
34983;BME280;21187;50.976;13.720;2023-02-04T02:43:04;99051.28;;;5.04;58.52
34983;BME280;21187;50.976;13.720;2023-02-04T02:48:09;99052.88;;;5.05;58.32
34983;BME280;21187;50.976;13.720;2023-02-04T02:53:13;99064.19;;;5.02;58.33
34983;BME280;21187;50.976;13.720;2023-02-04T02:58:27;99082.25;;;4.96;57.73
34983;BME280;21187;50.976;13.720;2023-02-04T03:03:35;99075.66;;;4.89;58.35
34983;BME280;21187;50.976;13.720;2023-02-04T03:08:39;99107.41;;;4.81;57.52
34983;BME280;21187;50.976;13.720;2023-02-04T03:13:42;99128.44;;;4.74;57.60
34983;BME280;21187;50.976;13.720;2023-02-04T03:18:44;99141.91;;;4.69;58.00
34983;BME280;21187;50.976;13.720;2023-02-04T03:23:46;99154.81;;;4.67;57.82
34983;BME280;21187;50.976;13.720;2023-02-04T03:28:48;99176.50;;;4.71;57.28
34983;BME280;21187;50.976;13.720;2023-02-04T03:33:50;99184.22;;;4.77;57.64
34983;BME280;21187;50.976;13.720;2023-02-04T03:38:52;99201.34;;;4.81;57.42
34983;BME280;21187;50.976;13.720;2023-02-04T03:43:54;99208.94;;;4.74;57.99
34983;BME280;21187;50.976;13.720;2023-02-04T03:48:56;99239.03;;;4.71;57.67
34983;BME280;21187;50.976;13.720;2023-02-04T03:53:58;99239.88;;;4.66;57.72
34983;BME280;21187;50.976;13.720;2023-02-04T03:59:00;99271.13;;;4.52;57.59
34983;BME280;21187;50.976;13.720;2023-02-04T04:04:02;99302.56;;;4.46;57.56
34983;BME280;21187;50.976;13.720;2023-02-04T04:09:04;99323.50;;;4.44;57.83
34983;BME280;21187;50.976;13.720;2023-02-04T04:14:06;99337.19;;;4.43;58.11
34983;BME280;21187;50.976;13.720;2023-02-04T04:19:08;99354.16;;;4.38;58.24
34983;BME280;21187;50.976;13.720;2023-02-04T04:24:10;99371.31;;;4.37;58.48
34983;BME280;21187;50.976;13.720;2023-02-04T04:29:11;99385.25;;;4.34;58.07
34983;BME280;21187;50.976;13.720;2023-02-04T04:34:13;99389.06;;;4.28;58.04
34983;BME280;21187;50.976;13.720;2023-02-04T04:39:15;99405.94;;;4.28;57.56
34983;BME280;21187;50.976;13.720;2023-02-04T04:44:17;99424.44;;;4.30;57.73
34983;BME280;21187;50.976;13.720;2023-02-04T04:49:19;99433.50;;;4.39;57.55
34983;BME280;21187;50.976;13.720;2023-02-04T04:54:21;99447.97;;;4.43;57.68
34983;BME280;21187;50.976;13.720;2023-02-04T04:59:23;99457.63;;;4.44;57.07
34983;BME280;21187;50.976;13.720;2023-02-04T05:04:24;99471.56;;;4.46;56.81
34983;BME280;21187;50.976;13.720;2023-02-04T05:09:26;99478.56;;;4.47;57.08
34983;BME280;21187;50.976;13.720;2023-02-04T05:14:28;99482.31;;;4.46;57.19
34983;BME280;21187;50.976;13.720;2023-02-04T05:19:30;99488.19;;;4.43;56.74
34983;BME280;21187;50.976;13.720;2023-02-04T05:24:32;99485.63;;;4.28;57.01
34983;BME280;21187;50.976;13.720;2023-02-04T05:29:34;99502.78;;;4.22;57.34
34983;BME280;21187;50.976;13.720;2023-02-04T05:34:35;99524.81;;;4.19;57.32
34983;BME280;21187;50.976;13.720;2023-02-04T05:39:42;99530.97;;;4.14;57.08
34983;BME280;21187;50.976;13.720;2023-02-04T05:44:43;99536.59;;;4.12;57.12
34983;BME280;21187;50.976;13.720;2023-02-04T05:49:45;99554.88;;;4.05;57.58
34983;BME280;21187;50.976;13.720;2023-02-04T05:54:47;99566.13;;;3.97;57.50
34983;BME280;21187;50.976;13.720;2023-02-04T05:59:49;99581.16;;;3.93;57.62
34983;BME280;21187;50.976;13.720;2023-02-04T06:04:51;99593.75;;;3.87;57.30
34983;BME280;21187;50.976;13.720;2023-02-04T06:09:53;99608.50;;;3.79;57.18
34983;BME280;21187;50.976;13.720;2023-02-04T06:14:54;99614.94;;;3.68;57.59
34983;BME280;21187;50.976;13.720;2023-02-04T06:19:56;99637.97;;;3.64;57.36
34983;BME280;21187;50.976;13.720;2023-02-04T06:24:58;99650.84;;;3.62;57.25
34983;BME280;21187;50.976;13.720;2023-02-04T06:30:00;99664.75;;;3.64;56.88
34983;BME280;21187;50.976;13.720;2023-02-04T06:35:02;99663.41;;;3.66;56.98
34983;BME280;21187;50.976;13.720;2023-02-04T06:40:05;99685.69;;;3.67;57.04
34983;BME280;21187;50.976;13.720;2023-02-04T06:45:07;99698.25;;;3.72;56.75
34983;BME280;21187;50.976;13.720;2023-02-04T06:50:09;99706.84;;;3.63;57.19
34983;BME280;21187;50.976;13.720;2023-02-04T06:55:15;99717.00;;;3.61;56.82
34983;BME280;21187;50.976;13.720;2023-02-04T07:00:18;99738.69;;;3.60;57.02
34983;BME280;21187;50.976;13.720;2023-02-04T07:05:19;99739.22;;;3.57;56.55
34983;BME280;21187;50.976;13.720;2023-02-04T07:10:21;99758.50;;;3.59;56.96
34983;BME280;21187;50.976;13.720;2023-02-04T07:15:23;99763.34;;;3.57;56.79
34983;BME280;21187;50.976;13.720;2023-02-04T07:20:25;99773.53;;;3.65;56.58
34983;BME280;21187;50.976;13.720;2023-02-04T07:25:27;99762.31;;;3.78;56.68
34983;BME280;21187;50.976;13.720;2023-02-04T07:30:29;99769.81;;;3.87;57.19
34983;BME280;21187;50.976;13.720;2023-02-04T07:35:31;99768.78;;;4.08;56.58
34983;BME280;21187;50.976;13.720;2023-02-04T07:40:33;99767.22;;;4.33;56.32
34983;BME280;21187;50.976;13.720;2023-02-04T07:45:35;99790.25;;;4.44;56.19
34983;BME280;21187;50.976;13.720;2023-02-04T07:50:37;99795.63;;;4.34;56.40
34983;BME280;21187;50.976;13.720;2023-02-04T07:55:39;99809.03;;;4.19;56.80
34983;BME280;21187;50.976;13.720;2023-02-04T08:00:41;99822.38;;;3.93;56.83
34983;BME280;21187;50.976;13.720;2023-02-04T08:05:43;99833.88;;;3.83;57.07
34983;BME280;21187;50.976;13.720;2023-02-04T08:10:45;99847.03;;;3.85;57.32
34983;BME280;21187;50.976;13.720;2023-02-04T08:15:47;99850.25;;;3.97;57.16
34983;BME280;21187;50.976;13.720;2023-02-04T08:20:49;99857.53;;;4.02;57.17
34983;BME280;21187;50.976;13.720;2023-02-04T08:25:51;99862.06;;;4.06;57.17
34983;BME280;21187;50.976;13.720;2023-02-04T08:30:52;99879.25;;;4.10;56.95
34983;BME280;21187;50.976;13.720;2023-02-04T08:35:54;99886.22;;;4.11;56.18
34983;BME280;21187;50.976;13.720;2023-02-04T08:40:56;99888.41;;;4.14;57.10
34983;BME280;21187;50.976;13.720;2023-02-04T08:45:58;99898.59;;;4.18;56.98
34983;BME280;21187;50.976;13.720;2023-02-04T08:51:00;99911.97;;;4.12;56.83
34983;BME280;21187;50.976;13.720;2023-02-04T08:56:02;99925.59;;;4.00;56.72
34983;BME280;21187;50.976;13.720;2023-02-04T09:01:04;99937.66;;;3.98;57.40
34983;BME280;21187;50.976;13.720;2023-02-04T09:06:07;99936.63;;;4.04;57.09
34983;BME280;21187;50.976;13.720;2023-02-04T09:11:10;99940.09;;;4.05;56.78
34983;BME280;21187;50.976;13.720;2023-02-04T09:16:12;99944.09;;;4.02;56.57
34983;BME280;21187;50.976;13.720;2023-02-04T09:21:14;99943.59;;;4.00;57.01
34983;BME280;21187;50.976;13.720;2023-02-04T09:26:16;99948.69;;;4.07;57.30
34983;BME280;21187;50.976;13.720;2023-02-04T09:31:18;99956.78;;;4.17;56.50
34983;BME280;21187;50.976;13.720;2023-02-04T09:36:20;99970.22;;;4.27;56.43
34983;BME280;21187;50.976;13.720;2023-02-04T09:41:22;99979.63;;;4.35;56.80
34983;BME280;21187;50.976;13.720;2023-02-04T09:46:25;99976.97;;;4.45;56.70
34983;BME280;21187;50.976;13.720;2023-02-04T09:51:33;99990.44;;;4.56;56.40
34983;BME280;21187;50.976;13.720;2023-02-04T09:56:36;100003.31;;;4.59;56.80
34983;BME280;21187;50.976;13.720;2023-02-04T10:01:38;100013.00;;;4.70;56.97
34983;BME280;21187;50.976;13.720;2023-02-04T10:06:41;100012.50;;;4.83;56.57
34983;BME280;21187;50.976;13.720;2023-02-04T10:11:46;100019.22;;;4.91;56.48
34983;BME280;21187;50.976;13.720;2023-02-04T10:16:54;100013.84;;;4.96;56.07
34983;BME280;21187;50.976;13.720;2023-02-04T10:21:59;100019.50;;;5.05;56.55
34983;BME280;21187;50.976;13.720;2023-02-04T10:27:08;100018.44;;;5.11;56.34
34983;BME280;21187;50.976;13.720;2023-02-04T10:32:31;100028.13;;;5.18;56.15
34983;BME280;21187;50.976;13.720;2023-02-04T10:37:33;100029.19;;;5.22;56.23
34983;BME280;21187;50.976;13.720;2023-02-04T10:42:35;100030.81;;;5.23;56.17
34983;BME280;21187;50.976;13.720;2023-02-04T10:47:37;100025.41;;;5.12;55.80
34983;BME280;21187;50.976;13.720;2023-02-04T10:52:41;100032.41;;;5.24;56.45
34983;BME280;21187;50.976;13.720;2023-02-04T10:57:46;100027.31;;;5.32;55.76
34983;BME280;21187;50.976;13.720;2023-02-04T11:03:02;100029.72;;;5.29;55.83
34983;BME280;21187;50.976;13.720;2023-02-04T11:08:24;100029.19;;;5.22;56.17
34983;BME280;21187;50.976;13.720;2023-02-04T11:13:56;100032.41;;;5.24;56.11
34983;BME280;21187;50.976;13.720;2023-02-04T11:19:04;100031.88;;;5.32;56.01
34983;BME280;21187;50.976;13.720;2023-02-04T11:39:27;100049.06;;;5.57;55.07
34983;BME280;21187;50.976;13.720;2023-02-04T11:44:30;100052.84;;;5.61;55.37
34983;BME280;21187;50.976;13.720;2023-02-04T11:49:35;100052.56;;;5.68;54.70
34983;BME280;21187;50.976;13.720;2023-02-04T11:54:37;100053.63;;;5.82;55.22
34983;BME280;21187;50.976;13.720;2023-02-04T11:59:38;100062.50;;;6.03;54.97
34983;BME280;21187;50.976;13.720;2023-02-04T12:09:55;100060.84;;;5.87;54.31
34983;BME280;21187;50.976;13.720;2023-02-04T12:15:07;100064.88;;;5.89;54.35
34983;BME280;21187;50.976;13.720;2023-02-04T12:20:11;100065.19;;;6.03;54.63
34983;BME280;21187;50.976;13.720;2023-02-04T12:25:14;100068.34;;;6.21;53.93
34983;BME280;21187;50.976;13.720;2023-02-04T12:30:17;100077.50;;;6.14;53.79
34983;BME280;21187;50.976;13.720;2023-02-04T12:35:21;100077.78;;;6.18;53.74
34983;BME280;21187;50.976;13.720;2023-02-04T12:40:25;100086.94;;;6.12;53.94
34983;BME280;21187;50.976;13.720;2023-02-04T12:45:27;100088.81;;;6.11;53.62
34983;BME280;21187;50.976;13.720;2023-02-04T12:50:29;100089.34;;;6.08;53.58
34983;BME280;21187;50.976;13.720;2023-02-04T12:55:32;100082.31;;;6.28;53.42
34983;BME280;21187;50.976;13.720;2023-02-04T13:00:34;100078.84;;;6.22;53.17
34983;BME280;21187;50.976;13.720;2023-02-04T13:05:36;100079.53;;;6.54;52.62
34983;BME280;21187;50.976;13.720;2023-02-04T13:10:38;100088.53;;;6.83;52.66
34983;BME280;21187;50.976;13.720;2023-02-04T13:15:40;100093.16;;;7.28;51.94
34983;BME280;21187;50.976;13.720;2023-02-04T13:20:43;100090.50;;;7.92;51.01
34983;BME280;21187;50.976;13.720;2023-02-04T13:25:47;100101.38;;;9.22;49.47
34983;BME280;21187;50.976;13.720;2023-02-04T13:30:48;100089.19;;;10.65;48.93
34983;BME280;21187;50.976;13.720;2023-02-04T13:35:50;100090.13;;;12.10;45.97
34983;BME280;21187;50.976;13.720;2023-02-04T13:40:52;100096.31;;;11.79;45.63
34983;BME280;21187;50.976;13.720;2023-02-04T13:45:55;100110.84;;;10.37;46.41
34983;BME280;21187;50.976;13.720;2023-02-04T13:50:58;100113.22;;;10.80;45.64
34983;BME280;21187;50.976;13.720;2023-02-04T13:56:01;100112.44;;;11.98;44.28
34983;BME280;21187;50.976;13.720;2023-02-04T14:01:03;100099.19;;;14.60;43.04
34983;BME280;21187;50.976;13.720;2023-02-04T14:06:05;100096.53;;;16.49;40.14
34983;BME280;21187;50.976;13.720;2023-02-04T14:11:08;100082.97;;;17.74;38.02
34983;BME280;21187;50.976;13.720;2023-02-04T14:16:11;100087.19;;;18.48;37.39
34983;BME280;21187;50.976;13.720;2023-02-04T14:21:13;100084.50;;;18.68;36.63
34983;BME280;21187;50.976;13.720;2023-02-04T14:26:15;100100.00;;;17.96;35.80
34983;BME280;21187;50.976;13.720;2023-02-04T14:31:17;100105.53;;;18.12;35.36
34983;BME280;21187;50.976;13.720;2023-02-04T14:36:20;100108.75;;;15.26;36.50
34983;BME280;21187;50.976;13.720;2023-02-04T14:41:23;100102.78;;;12.15;39.00
34983;BME280;21187;50.976;13.720;2023-02-04T14:46:26;100119.47;;;10.39;40.77
34983;BME280;21187;50.976;13.720;2023-02-04T14:51:28;100113.75;;;9.28;41.93
34983;BME280;21187;50.976;13.720;2023-02-04T14:56:30;100113.72;;;8.65;42.18
34983;BME280;21187;50.976;13.720;2023-02-04T15:01:32;100116.69;;;8.15;42.82
34983;BME280;21187;50.976;13.720;2023-02-04T15:06:34;100108.94;;;7.79;43.13
34983;BME280;21187;50.976;13.720;2023-02-04T15:11:37;100104.25;;;7.56;43.47
34983;BME280;21187;50.976;13.720;2023-02-04T15:16:39;100114.19;;;7.26;43.60
34983;BME280;21187;50.976;13.720;2023-02-04T15:21:44;100103.28;;;6.96;43.52
34983;BME280;21187;50.976;13.720;2023-02-04T15:26:46;100103.41;;;6.76;44.07
34983;BME280;21187;50.976;13.720;2023-02-04T15:31:48;100102.09;;;6.68;44.03
34983;BME280;21187;50.976;13.720;2023-02-04T15:36:50;100103.50;;;6.55;44.49
34983;BME280;21187;50.976;13.720;2023-02-04T15:41:52;100113.78;;;6.38;44.48
34983;BME280;21187;50.976;13.720;2023-02-04T15:46:54;100113.53;;;6.13;45.27
34983;BME280;21187;50.976;13.720;2023-02-04T15:51:56;100118.97;;;6.03;45.28
34983;BME280;21187;50.976;13.720;2023-02-04T15:56:58;100132.38;;;5.82;45.89
34983;BME280;21187;50.976;13.720;2023-02-04T16:02:00;100132.38;;;5.77;45.99
34983;BME280;21187;50.976;13.720;2023-02-04T16:07:02;100143.69;;;5.74;46.37
34983;BME280;21187;50.976;13.720;2023-02-04T16:12:08;100153.63;;;5.74;46.02
34983;BME280;21187;50.976;13.720;2023-02-04T16:17:10;100159.81;;;5.74;46.45
34983;BME280;21187;50.976;13.720;2023-02-04T16:22:12;100159.25;;;5.67;46.46
34983;BME280;21187;50.976;13.720;2023-02-04T16:27:14;100158.72;;;5.60;46.63
34983;BME280;21187;50.976;13.720;2023-02-04T16:32:18;100164.06;;;5.39;47.12
34983;BME280;21187;50.976;13.720;2023-02-04T16:37:20;100168.88;;;5.27;47.39
34983;BME280;21187;50.976;13.720;2023-02-04T16:42:22;100178.03;;;5.31;47.14
34983;BME280;21187;50.976;13.720;2023-02-04T16:47:24;100188.19;;;5.13;47.02
34983;BME280;21187;50.976;13.720;2023-02-04T16:52:27;100184.84;;;4.91;47.92
34983;BME280;21187;50.976;13.720;2023-02-04T16:57:29;100190.56;;;5.05;47.28
34983;BME280;21187;50.976;13.720;2023-02-04T17:02:31;100193.78;;;5.07;47.02
34983;BME280;21187;50.976;13.720;2023-02-04T17:07:37;100191.34;;;5.00;47.28
34983;BME280;21187;50.976;13.720;2023-02-04T17:12:39;100192.94;;;4.96;47.79
34983;BME280;21187;50.976;13.720;2023-02-04T17:17:41;100195.09;;;4.94;47.96
34983;BME280;21187;50.976;13.720;2023-02-04T17:22:43;100200.97;;;4.91;47.34
34983;BME280;21187;50.976;13.720;2023-02-04T17:27:45;100208.47;;;4.83;47.63
34983;BME280;21187;50.976;13.720;2023-02-04T17:32:47;100209.00;;;4.80;47.51
34983;BME280;21187;50.976;13.720;2023-02-04T17:37:49;100206.84;;;4.82;47.59
34983;BME280;21187;50.976;13.720;2023-02-04T17:42:51;100214.88;;;4.77;47.68
34983;BME280;21187;50.976;13.720;2023-02-04T17:47:53;100214.34;;;4.75;47.74
34983;BME280;21187;50.976;13.720;2023-02-04T17:52:55;100212.72;;;4.74;47.88
34983;BME280;21187;50.976;13.720;2023-02-04T17:58:10;100208.41;;;4.73;47.21
34983;BME280;21187;50.976;13.720;2023-02-04T18:03:15;100209.47;;;4.72;47.29
34983;BME280;21187;50.976;13.720;2023-02-04T18:08:28;100206.75;;;4.67;47.20
34983;BME280;21187;50.976;13.720;2023-02-04T18:13:35;100208.06;;;4.59;47.84
34983;BME280;21187;50.976;13.720;2023-02-04T18:18:39;100219.88;;;4.58;47.71
34983;BME280;21187;50.976;13.720;2023-02-04T18:23:41;100212.88;;;4.57;47.93
34983;BME280;21187;50.976;13.720;2023-02-04T18:28:46;100224.41;;;4.58;47.86
34983;BME280;21187;50.976;13.720;2023-02-04T18:33:48;100210.47;;;4.56;48.00
34983;BME280;21187;50.976;13.720;2023-02-04T18:38:50;100217.41;;;4.52;47.51
34983;BME280;21187;50.976;13.720;2023-02-04T18:43:58;100209.88;;;4.48;47.88
34983;BME280;21187;50.976;13.720;2023-02-04T18:49:19;100211.44;;;4.44;47.74
34983;BME280;21187;50.976;13.720;2023-02-04T18:54:37;100214.66;;;4.41;47.68
34983;BME280;21187;50.976;13.720;2023-02-04T18:59:40;100218.41;;;4.40;48.46
34983;BME280;21187;50.976;13.720;2023-02-04T19:04:43;100203.63;;;4.38;48.54
34983;BME280;21187;50.976;13.720;2023-02-04T19:09:45;100212.97;;;4.30;48.32
34983;BME280;21187;50.976;13.720;2023-02-04T19:14:47;100209.44;;;4.24;48.19
34983;BME280;21187;50.976;13.720;2023-02-04T19:25:28;100221.19;;;4.18;48.69
34983;BME280;21187;50.976;13.720;2023-02-04T19:31:00;100232.13;;;4.11;48.49
34983;BME280;21187;50.976;13.720;2023-02-04T19:41:34;100242.84;;;4.11;48.87
34983;BME280;21187;50.976;13.720;2023-02-04T19:46:42;100243.41;;;4.13;48.75
34983;BME280;21187;50.976;13.720;2023-02-04T19:51:45;100244.78;;;4.16;48.44
34983;BME280;21187;50.976;13.720;2023-02-04T19:56:49;100255.50;;;4.16;48.48
34983;BME280;21187;50.976;13.720;2023-02-04T20:02:21;100241.78;;;4.12;49.05
34983;BME280;21187;50.976;13.720;2023-02-04T20:07:28;100252.25;;;4.14;48.86
34983;BME280;21187;50.976;13.720;2023-02-04T20:12:31;100246.09;;;4.13;48.66
34983;BME280;21187;50.976;13.720;2023-02-04T20:22:45;100267.25;;;4.10;49.22
34983;BME280;21187;50.976;13.720;2023-02-04T20:27:53;100275.56;;;4.08;48.87
34983;BME280;21187;50.976;13.720;2023-02-04T20:38:21;100306.00;;;3.97;48.88
34983;BME280;21187;50.976;13.720;2023-02-04T20:43:23;100299.47;;;3.88;48.70
34983;BME280;21187;50.976;13.720;2023-02-04T20:48:30;100311.69;;;3.78;49.13
34983;BME280;21187;50.976;13.720;2023-02-04T20:58:42;100319.28;;;3.59;49.38
34983;BME280;21187;50.976;13.720;2023-02-04T21:03:46;100325.38;;;3.55;48.76
34983;BME280;21187;50.976;13.720;2023-02-04T21:08:50;100336.59;;;3.52;49.25
34983;BME280;21187;50.976;13.720;2023-02-04T21:13:53;100337.09;;;3.48;48.77
34983;BME280;21187;50.976;13.720;2023-02-04T21:18:55;100354.16;;;3.42;48.76
34983;BME280;21187;50.976;13.720;2023-02-04T21:23:57;100350.28;;;3.33;48.40
34983;BME280;21187;50.976;13.720;2023-02-04T21:28:59;100355.25;;;3.24;48.98
34983;BME280;21187;50.976;13.720;2023-02-04T21:34:01;100358.75;;;3.25;48.55
34983;BME280;21187;50.976;13.720;2023-02-04T21:39:03;100360.13;;;3.27;48.99
34983;BME280;21187;50.976;13.720;2023-02-04T21:44:04;100353.41;;;3.25;48.09
34983;BME280;21187;50.976;13.720;2023-02-04T21:49:06;100360.84;;;3.23;48.34
34983;BME280;21187;50.976;13.720;2023-02-04T21:54:08;100368.31;;;3.21;48.23
34983;BME280;21187;50.976;13.720;2023-02-04T21:59:10;100354.69;;;3.22;48.00
34983;BME280;21187;50.976;13.720;2023-02-04T22:04:12;100344.97;;;3.16;48.16
34983;BME280;21187;50.976;13.720;2023-02-04T22:09:15;100343.00;;;3.11;48.48
34983;BME280;21187;50.976;13.720;2023-02-04T22:14:18;100353.41;;;3.08;48.73
34983;BME280;21187;50.976;13.720;2023-02-04T22:19:20;100364.38;;;3.06;48.18
34983;BME280;21187;50.976;13.720;2023-02-04T22:24:22;100369.16;;;3.04;47.93
34983;BME280;21187;50.976;13.720;2023-02-04T22:29:24;100372.41;;;3.06;48.55
34983;BME280;21187;50.976;13.720;2023-02-04T22:34:30;100370.19;;;3.03;48.55
34983;BME280;21187;50.976;13.720;2023-02-04T22:39:32;100375.47;;;2.98;48.45
34983;BME280;21187;50.976;13.720;2023-02-04T22:44:34;100383.44;;;2.93;48.37
34983;BME280;21187;50.976;13.720;2023-02-04T22:49:36;100378.00;;;2.88;48.12
34983;BME280;21187;50.976;13.720;2023-02-04T22:54:38;100370.13;;;2.81;48.46
34983;BME280;21187;50.976;13.720;2023-02-04T22:59:40;100369.56;;;2.79;48.11
34983;BME280;21187;50.976;13.720;2023-02-04T23:04:42;100375.66;;;2.74;48.14
34983;BME280;21187;50.976;13.720;2023-02-04T23:09:45;100371.38;;;2.73;48.41
34983;BME280;21187;50.976;13.720;2023-02-04T23:14:47;100369.16;;;2.70;48.07
34983;BME280;21187;50.976;13.720;2023-02-04T23:19:50;100373.13;;;2.67;48.13
34983;BME280;21187;50.976;13.720;2023-02-04T23:24:51;100375.50;;;2.64;48.11
34983;BME280;21187;50.976;13.720;2023-02-04T23:29:53;100385.28;;;2.58;48.63
34983;BME280;21187;50.976;13.720;2023-02-04T23:34:55;100394.59;;;2.56;48.53
34983;BME280;21187;50.976;13.720;2023-02-04T23:39:57;100397.88;;;2.58;48.17
34983;BME280;21187;50.976;13.720;2023-02-04T23:44:59;100396.72;;;2.54;48.47
34983;BME280;21187;50.976;13.720;2023-02-04T23:50:02;100390.00;;;2.51;48.37
34983;BME280;21187;50.976;13.720;2023-02-04T23:55:04;100387.56;;;2.49;47.92
